Richland, Illinois
Current Conditions -  °F | °C
As of 12:52 PM on Friday 21 Nov 2014 (Local Time) from KSPI Reporting Station
Clear Clear  
Wind Chill: 30°   Ceiling: Unl
Heat Index: 37°   Visibility: 10mi
Dew Point: 12°   Wind: 10mph
Humidity: 36%   Direction: 150°SSE
Pressure: 30.37"   Gusts: NA
Location:  39.8458°N, 89.8743°W
Report Text: KSPI 211852Z 15009KT 10SM CLR 03/M11 A3037 RMK AO2 SLP293 T00281111
Loading
Personal Weather Stations






























Interactive Weather Map New forecast layout! Learn more

10-Day Weather Forecast

Advertisements
Track Severe Weather on mobile